MI28 weather

Dow Division Heliport
Midland, Michigan, United States

Public forecast

Using degrees Fahrenheit for public forecast. Weather courtesy of forecast.io.

METAR (pilot weather report)

Closest report is Jack Barstow Airport, 4.5 nm (8.3 km) NNW. Retrieved 2019/09/21 10:35 UTC (0 seconds ago):

KIKW 211035Z AUTO 00000KT 7SM SCT070 16/15 A3013 RMK AO2 T01580147

TAF (pilot weather forecast)

Closest forecast is MBS International Airport, 7.2 nm (13.4 km) ESE. Retrieved 2019/09/21 06:27 UTC (4 hours ago):

TAF KMBS 210524Z 2106/2206 18005KT P6SM SCT050 FM210800 18005KT P6SM BKN060 FM211300 20010KT P6SM SCT040 FM212200 23013KT P6SM VCTS BKN045CB OVC100